createdAt,value
2019-04-28T00:00:36.494Z,48.97
2019-04-28T00:03:03.726Z,49.10
2019-04-28T00:05:30.903Z,45.53
2019-04-28T00:08:01.151Z,40.60
2019-04-28T00:10:28.397Z,39.67
2019-04-28T00:12:55.264Z,42.10
2019-04-28T00:15:22.229Z,39.70
2019-04-28T00:17:49.113Z,42.80
2019-04-28T00:20:22.070Z,35.83
2019-04-28T00:23:01.707Z,40.20
2019-04-28T00:25:31.191Z,48.67
2019-04-28T00:27:58.109Z,44.77
2019-04-28T00:30:25.103Z,38.60
2019-04-28T00:32:51.947Z,39.53
2019-04-28T00:35:18.873Z,38.97
2019-04-28T00:37:45.663Z,36.87
2019-04-28T00:40:14.446Z,38.37
2019-04-28T00:42:41.483Z,43.50
2019-04-28T00:45:09.038Z,44.70
2019-04-28T00:47:35.966Z,40.90
2019-04-28T00:50:05.038Z,44.27
2019-04-28T00:52:32.074Z,39.73
2019-04-28T00:55:01.125Z,42.20
2019-04-28T00:57:28.238Z,45.40
2019-04-28T00:59:58.501Z,43.53
2019-04-28T01:02:31.930Z,48.60
2019-04-28T01:04:58.850Z,43.90
2019-04-28T01:07:25.840Z,46.67
2019-04-28T01:09:52.836Z,44.67
2019-04-28T01:12:21.221Z,46.50
2019-04-28T01:14:49.769Z,52.83
2019-04-28T01:17:23.933Z,50.93
2019-04-28T01:19:52.271Z,41.97
2019-04-28T01:22:20.159Z,42.67
2019-04-28T01:24:47.247Z,44.57
2019-04-28T01:27:50.563Z,32.47
2019-04-28T01:30:37.174Z,30.90
2019-04-28T01:33:09.563Z,31.53
2019-04-28T01:35:36.589Z,32.10
2019-04-28T01:38:03.492Z,28.17
2019-04-28T01:40:30.526Z,23.60
2019-04-28T01:42:57.454Z,25.40
2019-04-28T01:45:24.661Z,22.57
2019-04-28T01:47:51.566Z,17.43
2019-04-28T01:50:20.277Z,18.17
2019-04-28T01:52:47.165Z,18.43
2019-04-28T01:55:13.938Z,18.93
2019-04-28T01:57:40.721Z,21.43
2019-04-28T02:00:22.190Z,28.00
2019-04-28T02:02:40.736Z,31.07
2019-04-28T02:05:09.689Z,29.33
2019-04-28T02:07:36.673Z,30.07
2019-04-28T02:10:04.155Z,29.17
2019-04-28T02:12:30.925Z,29.83
2019-04-28T02:14:57.732Z,29.10
2019-04-28T02:17:24.602Z,29.63
2019-04-28T02:19:51.685Z,25.63
2019-04-28T02:22:42.154Z,28.93
2019-04-28T02:25:09.968Z,26.90
2019-04-28T02:27:36.961Z,28.37
2019-04-28T02:30:05.871Z,25.43
2019-04-28T02:32:32.874Z,23.13
2019-04-28T02:35:01.293Z,24.17
2019-04-28T02:37:30.659Z,24.80
2019-04-28T02:39:57.059Z,23.37
2019-04-28T02:42:23.842Z,23.03
2019-04-28T02:44:50.822Z,21.57
2019-04-28T02:47:17.839Z,21.23
2019-04-28T02:50:02.565Z,19.63
2019-04-28T02:52:51.757Z,19.07
2019-04-28T02:55:18.056Z,25.97
2019-04-28T02:57:44.831Z,16.87
2019-04-28T03:00:12.251Z,16.67
2019-04-28T03:02:41.468Z,17.93
2019-04-28T03:05:08.123Z,16.33
2019-04-28T03:07:35.111Z,15.73
2019-04-28T03:10:03.837Z,16.60
2019-04-28T03:12:31.646Z,18.27
2019-04-28T03:15:00.522Z,14.47
2019-04-28T03:17:27.571Z,14.60
2019-04-28T03:19:54.562Z,13.50
2019-04-28T03:22:21.434Z,13.67
2019-04-28T03:24:51.060Z,14.20
2019-04-28T03:27:31.539Z,14.10
2019-04-28T03:30:03.475Z,12.73
2019-04-28T03:32:58.427Z,14.37
2019-04-28T03:35:22.830Z,15.63
2019-04-28T03:37:47.973Z,18.00
2019-04-28T03:40:14.764Z,14.10
2019-04-28T03:42:41.556Z,16.00
2019-04-28T03:45:15.493Z,15.87
2019-04-28T03:47:42.308Z,16.37
2019-04-28T03:50:10.492Z,20.40
2019-04-28T03:52:37.599Z,20.57
2019-04-28T03:55:04.615Z,20.73
2019-04-28T03:57:31.637Z,24.53
2019-04-28T04:00:00.944Z,23.00
2019-04-28T04:02:27.234Z,24.07
2019-04-28T04:04:54.015Z,22.03
2019-04-28T04:07:21.789Z,23.57
2019-04-28T04:10:04.814Z,23.23
2019-04-28T04:12:51.284Z,23.43
2019-04-28T04:15:42.990Z,24.67
2019-04-28T04:18:14.292Z,23.17
2019-04-28T04:20:41.281Z,23.53
2019-04-28T04:23:11.070Z,26.03
2019-04-28T04:25:36.958Z,23.50
2019-04-28T04:28:04.082Z,25.17
2019-04-28T04:30:31.370Z,23.27
2019-04-28T04:33:01.094Z,22.27
2019-04-28T04:35:27.059Z,25.53
2019-04-28T04:37:53.979Z,23.63
2019-04-28T04:40:21.049Z,24.10
2019-04-28T04:42:50.159Z,22.90
2019-04-28T04:45:16.877Z,22.73
2019-04-28T04:47:43.667Z,23.00
2019-04-28T04:50:13.154Z,21.13
2019-04-28T04:52:40.266Z,21.23
2019-04-28T04:55:07.550Z,22.27
2019-04-28T04:57:34.330Z,20.90
2019-04-28T05:00:03.063Z,19.10
2019-04-28T05:02:52.889Z,18.60
2019-04-28T05:05:33.548Z,19.67
2019-04-28T05:08:00.414Z,16.07
2019-04-28T05:10:27.564Z,15.50
2019-04-28T05:12:54.386Z,17.17
2019-04-28T05:15:21.225Z,16.40
2019-04-28T05:17:49.942Z,17.10
2019-04-28T05:20:16.843Z,15.57
2019-04-28T05:23:00.686Z,12.60
2019-04-28T05:25:33.081Z,13.23
2019-04-28T05:28:02.896Z,11.23
2019-04-28T05:30:29.678Z,9.67
2019-04-28T05:32:57.488Z,11.80
2019-04-28T05:35:25.215Z,12.73
2019-04-28T05:37:52.230Z,11.50
2019-04-28T05:40:20.550Z,11.33
2019-04-28T05:43:00.824Z,10.40
2019-04-28T05:45:29.697Z,12.90
2019-04-28T05:47:57.018Z,10.87
2019-04-28T05:50:29.761Z,10.47
2019-04-28T05:53:10.826Z,9.87
2019-04-28T05:55:50.170Z,8.73
2019-04-28T05:58:41.016Z,8.33
2019-04-28T06:01:32.837Z,8.90
2019-04-28T06:04:00.899Z,9.30
2019-04-28T06:06:31.501Z,7.73
2019-04-28T06:09:10.268Z,13.13
2019-04-28T06:11:39.779Z,8.43
2019-04-28T06:14:06.733Z,7.63
2019-04-28T06:16:33.522Z,6.20
2019-04-28T06:19:00.409Z,8.57
2019-04-28T06:21:27.305Z,7.57
2019-04-28T06:23:54.134Z,7.80
2019-04-28T06:26:21.131Z,6.53
2019-04-28T06:28:48.001Z,8.27
2019-04-28T06:31:15.055Z,6.37
2019-04-28T06:33:44.423Z,6.23
2019-04-28T06:36:10.529Z,5.73
2019-04-28T06:38:37.444Z,4.67
2019-04-28T06:41:04.433Z,6.00
2019-04-28T06:43:31.310Z,7.77
2019-04-28T06:45:58.326Z,5.50
2019-04-28T06:48:25.314Z,4.37
2019-04-28T06:50:52.190Z,3.93
2019-04-28T06:53:19.014Z,4.23
2019-04-28T06:55:45.905Z,3.17
2019-04-28T06:58:12.673Z,5.10
2019-04-28T07:00:39.610Z,2.97
2019-04-28T07:03:09.201Z,3.90
2019-04-28T07:05:35.215Z,2.70
2019-04-28T07:08:02.133Z,3.47
2019-04-28T07:10:28.983Z,2.90
2019-04-28T07:12:55.762Z,3.37
2019-04-28T07:15:22.589Z,2.57
2019-04-28T07:17:49.363Z,2.60
2019-04-28T07:20:33.859Z,5.93
2019-04-28T07:23:00.741Z,2.60
2019-04-28T07:25:27.630Z,2.20
2019-04-28T07:27:54.426Z,3.93
2019-04-28T07:30:21.528Z,2.40
2019-04-28T07:32:48.438Z,2.93
2019-04-28T07:35:15.450Z,2.87
2019-04-28T07:37:42.233Z,3.53
2019-04-28T07:40:09.362Z,3.47
2019-04-28T07:42:36.174Z,2.20
2019-04-28T07:45:03.332Z,3.20
2019-04-28T07:47:30.271Z,2.40
2019-04-28T07:49:57.229Z,1.80
2019-04-28T07:52:36.254Z,1.67
2019-04-28T07:55:04.034Z,1.53
2019-04-28T07:57:30.909Z,3.63
2019-04-28T07:59:57.734Z,2.93
2019-04-28T08:02:24.810Z,3.77
2019-04-28T08:04:51.592Z,1.87
2019-04-28T08:07:18.554Z,4.70
2019-04-28T08:09:45.349Z,2.20
2019-04-28T08:12:12.217Z,4.20
2019-04-28T08:14:39.046Z,1.93
2019-04-28T08:17:05.812Z,4.33
2019-04-28T08:19:32.806Z,2.03
2019-04-28T08:21:59.629Z,2.10
2019-04-28T08:24:26.453Z,2.67
2019-04-28T08:26:53.338Z,3.00
2019-04-28T08:29:20.165Z,1.97
2019-04-28T08:31:54.446Z,2.97
2019-04-28T08:34:21.377Z,2.60
2019-04-28T08:36:48.304Z,3.77
2019-04-28T08:39:15.205Z,1.70
2019-04-28T08:41:42.160Z,3.73
2019-04-28T08:44:09.041Z,3.00
2019-04-28T08:46:35.859Z,3.23
2019-04-28T08:49:02.889Z,1.70
2019-04-28T08:51:29.790Z,4.53
2019-04-28T08:53:56.580Z,3.17
2019-04-28T08:56:23.542Z,3.00
2019-04-28T08:58:50.349Z,3.03
2019-04-28T09:01:17.154Z,3.50
2019-04-28T09:03:43.993Z,4.03
2019-04-28T09:06:10.781Z,4.40
2019-04-28T09:08:37.573Z,6.77
2019-04-28T09:11:04.457Z,2.83
2019-04-28T09:13:31.341Z,2.97
2019-04-28T09:15:58.174Z,1.83
2019-04-28T09:18:24.983Z,2.03
2019-04-28T09:20:51.875Z,2.73
2019-04-28T09:23:19.530Z,3.07
2019-04-28T09:25:46.357Z,3.33
2019-04-28T09:28:13.265Z,2.50
2019-04-28T09:30:40.818Z,5.30
2019-04-28T09:33:07.630Z,2.50
2019-04-28T09:35:34.546Z,2.30
2019-04-28T09:38:01.400Z,3.97
2019-04-28T09:40:28.315Z,4.33
2019-04-28T09:43:27.305Z,2.17
2019-04-28T09:46:02.223Z,1.73
2019-04-28T09:48:29.073Z,2.30
2019-04-28T09:50:56.118Z,1.80
2019-04-28T09:53:22.977Z,4.37
2019-04-28T09:55:49.806Z,5.33
2019-04-28T09:58:16.597Z,2.57
2019-04-28T10:00:43.505Z,6.00
2019-04-28T10:03:10.550Z,2.97
2019-04-28T10:05:37.549Z,3.40
2019-04-28T10:08:04.545Z,3.70
2019-04-28T10:10:31.626Z,2.83
2019-04-28T10:12:58.632Z,5.93
2019-04-28T10:15:25.647Z,4.37
2019-04-28T10:17:52.462Z,3.57
2019-04-28T10:20:20.063Z,2.40
2019-04-28T10:22:46.976Z,2.20
2019-04-28T10:25:14.100Z,2.13
2019-04-28T10:27:40.996Z,3.60
2019-04-28T10:30:08.634Z,2.17
2019-04-28T10:32:35.462Z,4.83
2019-04-28T10:35:02.758Z,3.00
2019-04-28T10:37:29.589Z,4.97
2019-04-28T10:40:01.990Z,5.30
2019-04-28T10:42:28.995Z,4.23
2019-04-28T10:44:56.140Z,3.00
2019-04-28T10:47:23.373Z,3.33
2019-04-28T10:49:50.285Z,4.43
2019-04-28T10:52:17.186Z,3.83
2019-04-28T10:54:43.998Z,5.23
2019-04-28T10:57:10.926Z,3.20
2019-04-28T10:59:37.825Z,3.20
2019-04-28T11:02:04.851Z,5.30
2019-04-28T11:04:50.467Z,4.13
2019-04-28T11:07:19.053Z,4.23
2019-04-28T11:09:51.581Z,4.37
2019-04-28T11:12:23.334Z,4.33
2019-04-28T11:14:50.346Z,4.20
2019-04-28T11:17:17.733Z,4.03
2019-04-28T11:19:44.765Z,4.13
2019-04-28T11:22:12.006Z,5.67
2019-04-28T11:24:39.505Z,6.57
2019-04-28T11:27:07.650Z,7.33
2019-04-28T11:29:34.459Z,6.57
2019-04-28T11:32:01.384Z,4.63
2019-04-28T11:34:44.402Z,8.43
2019-04-28T11:37:11.378Z,10.37
2019-04-28T11:39:40.195Z,5.37
2019-04-28T11:42:07.125Z,6.33
2019-04-28T11:44:34.132Z,6.23
2019-04-28T11:47:01.016Z,4.47
2019-04-28T11:49:27.910Z,3.50
2019-04-28T11:51:54.689Z,3.83
2019-04-28T11:54:24.098Z,7.07
2019-04-28T11:56:50.385Z,4.40
2019-04-28T11:59:17.680Z,4.53
2019-04-28T12:01:44.706Z,5.30
2019-04-28T12:04:13.773Z,4.53
2019-04-28T12:06:40.670Z,4.60
2019-04-28T12:09:36.068Z,4.77
2019-04-28T12:12:08.553Z,3.43
2019-04-28T12:14:40.493Z,3.87
2019-04-28T12:17:26.982Z,4.73
2019-04-28T12:20:07.143Z,3.37
2019-04-28T12:22:34.078Z,4.37
2019-04-28T12:25:01.106Z,3.40
2019-04-28T12:27:27.981Z,5.00
2019-04-28T12:29:54.818Z,4.17
2019-04-28T12:32:21.707Z,3.03
2019-04-28T12:34:48.494Z,3.03
2019-04-28T12:37:15.277Z,3.30
2019-04-28T12:39:42.082Z,3.57
2019-04-28T12:42:09.036Z,3.77
2019-04-28T12:44:35.823Z,3.37
2019-04-28T12:47:03.219Z,4.07
2019-04-28T12:49:39.349Z,5.27
2019-04-28T12:52:06.733Z,6.30
2019-04-28T12:54:35.482Z,4.63
2019-04-28T12:57:02.389Z,4.40
2019-04-28T12:59:35.634Z,6.10
2019-04-28T13:02:15.619Z,3.93
2019-04-28T13:04:46.049Z,3.87
2019-04-28T13:07:12.985Z,3.80
2019-04-28T13:09:39.773Z,4.93
2019-04-28T13:12:06.862Z,6.33
2019-04-28T13:14:33.870Z,5.03
2019-04-28T13:17:00.856Z,4.03
2019-04-28T13:19:27.809Z,4.93
2019-04-28T13:21:54.728Z,3.67
2019-04-28T13:24:21.497Z,4.27
2019-04-28T13:26:48.294Z,3.63
2019-04-28T13:29:15.451Z,4.93
2019-04-28T13:31:42.248Z,5.90
2019-04-28T13:34:11.166Z,6.00
2019-04-28T13:36:38.098Z,6.20
2019-04-28T13:39:08.870Z,4.07
2019-04-28T13:41:37.391Z,5.43
2019-04-28T13:44:06.513Z,6.47
2019-04-28T13:46:33.615Z,9.53
2019-04-28T13:49:04.003Z,5.60
2019-04-28T13:51:30.825Z,6.83
2019-04-28T13:53:58.210Z,5.53
2019-04-28T13:56:25.427Z,6.43
2019-04-28T13:58:58.697Z,9.70
2019-04-28T14:01:51.041Z,6.13
2019-04-28T14:04:26.074Z,5.93
2019-04-28T14:06:56.742Z,4.33
2019-04-28T14:09:23.565Z,4.43
2019-04-28T14:11:50.345Z,6.97
2019-04-28T14:14:17.238Z,7.77
2019-04-28T14:16:44.170Z,4.43
2019-04-28T14:19:11.050Z,7.77
2019-04-28T14:21:40.757Z,5.87
2019-04-28T14:24:07.632Z,4.50
2019-04-28T14:26:34.505Z,5.90
2019-04-28T14:29:01.410Z,6.93
2019-04-28T14:31:28.465Z,5.73
2019-04-28T14:33:55.258Z,6.67
2019-04-28T14:36:22.058Z,10.50
2019-04-28T14:38:48.974Z,8.87
2019-04-28T14:41:15.785Z,6.23
2019-04-28T14:43:42.650Z,7.27
2019-04-28T14:46:09.470Z,7.27
2019-04-28T14:48:36.540Z,7.03
2019-04-28T14:51:03.698Z,6.40
2019-04-28T14:53:30.645Z,6.90
2019-04-28T14:55:57.527Z,7.87
2019-04-28T14:58:24.393Z,8.07
2019-04-28T15:00:56.169Z,7.60
2019-04-28T15:03:23.930Z,5.73
2019-04-28T15:06:13.464Z,7.00
2019-04-28T15:09:15.302Z,6.67
2019-04-28T15:11:46.004Z,5.50
2019-04-28T15:14:12.949Z,6.97
2019-04-28T15:16:39.886Z,8.00
2019-04-28T15:19:06.840Z,5.77
2019-04-28T15:21:33.626Z,6.60
2019-04-28T15:24:00.522Z,7.37
2019-04-28T15:26:27.378Z,6.97
2019-04-28T15:28:54.159Z,6.67
2019-04-28T15:31:21.065Z,5.47
2019-04-28T15:33:47.990Z,7.23
2019-04-28T15:36:14.993Z,7.03
2019-04-28T15:38:41.894Z,5.03
2019-04-28T15:41:20.908Z,19.27
2019-04-28T15:43:37.539Z,7.60
2019-04-28T15:46:04.534Z,10.27
2019-04-28T15:48:31.350Z,6.53
2019-04-28T15:50:58.121Z,6.53
2019-04-28T15:53:25.006Z,7.33
2019-04-28T15:55:59.455Z,8.57
2019-04-28T15:58:31.113Z,7.37
2019-04-28T16:01:00.005Z,9.43
2019-04-28T16:03:27.214Z,9.90
2019-04-28T16:05:54.210Z,10.10
2019-04-28T16:08:21.202Z,10.60
2019-04-28T16:10:48.018Z,11.50
2019-04-28T16:13:15.022Z,12.13
2019-04-28T16:15:41.839Z,8.93
2019-04-28T16:18:08.729Z,9.03
2019-04-28T16:20:35.525Z,7.73
2019-04-28T16:23:02.448Z,9.17
2019-04-28T16:25:29.270Z,9.10
2019-04-28T16:27:56.160Z,9.77
2019-04-28T16:30:22.993Z,8.27
2019-04-28T16:32:49.812Z,7.00
2019-04-28T16:35:16.602Z,10.20
2019-04-28T16:37:43.419Z,9.00
2019-04-28T16:40:10.227Z,9.13
2019-04-28T16:42:39.209Z,7.77
2019-04-28T16:45:06.737Z,9.37
2019-04-28T16:47:33.626Z,11.27
2019-04-28T16:50:00.450Z,8.50
2019-04-28T16:52:27.396Z,9.70
2019-04-28T16:55:14.203Z,8.87
2019-04-28T16:58:01.669Z,6.50
2019-04-28T17:00:46.827Z,8.70
2019-04-28T17:03:13.850Z,8.57
2019-04-28T17:05:40.740Z,6.87
2019-04-28T17:08:07.692Z,6.00
2019-04-28T17:10:34.798Z,7.33
2019-04-28T17:13:01.693Z,6.27
2019-04-28T17:15:30.313Z,8.20
2019-04-28T17:17:57.516Z,8.03
2019-04-28T17:20:24.409Z,8.87
2019-04-28T17:22:51.213Z,5.80
2019-04-28T17:25:18.269Z,7.77
2019-04-28T17:27:45.069Z,6.30
2019-04-28T17:30:12.369Z,7.50
2019-04-28T17:32:39.331Z,8.30
2019-04-28T17:35:06.929Z,7.67
2019-04-28T17:37:33.821Z,6.90
2019-04-28T17:40:01.546Z,6.90
2019-04-28T17:42:28.466Z,9.20
2019-04-28T17:44:55.460Z,10.57
2019-04-28T17:47:22.959Z,10.20
2019-04-28T17:49:49.950Z,10.80
2019-04-28T17:52:16.765Z,11.63
2019-04-28T17:54:43.564Z,10.93
2019-04-28T17:57:10.561Z,11.33
2019-04-28T17:59:37.501Z,12.30
2019-04-28T18:02:22.620Z,11.73
2019-04-28T18:05:04.513Z,12.93
2019-04-28T18:07:33.390Z,13.63
2019-04-28T18:10:00.393Z,14.87
2019-04-28T18:12:27.541Z,17.53
2019-04-28T18:14:58.289Z,16.70
2019-04-28T18:17:43.613Z,16.60
2019-04-28T18:20:10.845Z,18.97
2019-04-28T18:22:37.759Z,18.53
2019-04-28T18:25:05.222Z,17.40
2019-04-28T18:27:32.030Z,22.13
2019-04-28T18:29:58.921Z,23.50
2019-04-28T18:32:40.366Z,23.60
2019-04-28T18:35:23.461Z,23.37
2019-04-28T18:37:58.911Z,21.97
2019-04-28T18:40:48.486Z,25.67
2019-04-28T18:43:37.593Z,23.90
2019-04-28T18:46:04.518Z,25.43
2019-04-28T18:48:31.355Z,27.13
2019-04-28T18:50:58.203Z,27.37
2019-04-28T18:53:25.109Z,22.87
2019-04-28T18:55:52.005Z,25.57
2019-04-28T18:58:18.951Z,27.47
2019-04-28T19:00:53.530Z,25.27
2019-04-28T19:03:20.437Z,27.47
2019-04-28T19:05:49.183Z,27.67
2019-04-28T19:08:54.069Z,23.23
2019-04-28T19:11:28.993Z,26.37
2019-04-28T19:14:00.208Z,28.27
2019-04-28T19:16:45.730Z,32.27
2019-04-28T19:19:13.538Z,30.57
2019-04-28T19:21:42.629Z,25.50
2019-04-28T19:24:09.762Z,24.90
2019-04-28T19:26:36.559Z,23.50
2019-04-28T19:29:03.559Z,22.20
2019-04-28T19:31:30.408Z,25.17
2019-04-28T19:33:57.228Z,23.67
2019-04-28T19:36:24.148Z,24.03
2019-04-28T19:39:02.630Z,24.73
2019-04-28T19:41:19.695Z,24.10
2019-04-28T19:43:46.722Z,24.03
2019-04-28T19:46:15.581Z,27.97
2019-04-28T19:48:42.626Z,28.10
2019-04-28T19:51:09.479Z,29.90
2019-04-28T19:53:36.323Z,31.73
2019-04-28T19:56:09.450Z,31.53
2019-04-28T19:58:41.154Z,34.77
2019-04-28T20:01:19.055Z,36.13
2019-04-28T20:03:46.023Z,41.73
2019-04-28T20:06:12.823Z,32.80
2019-04-28T20:08:39.766Z,37.07
2019-04-28T20:11:06.738Z,35.13
2019-04-28T20:13:33.541Z,38.80
2019-04-28T20:16:00.462Z,40.83
2019-04-28T20:18:29.520Z,41.13
2019-04-28T20:20:56.301Z,42.87
2019-04-28T20:23:23.107Z,41.27
2019-04-28T20:25:50.042Z,43.57
2019-04-28T20:28:16.930Z,44.67
2019-04-28T20:30:43.728Z,39.77
2019-04-28T20:33:10.771Z,37.10
2019-04-28T20:35:42.475Z,42.97
2019-04-28T20:38:16.018Z,37.27
2019-04-28T20:40:49.117Z,46.50
2019-04-28T20:43:18.025Z,39.67
2019-04-28T20:45:44.951Z,34.20
2019-04-28T20:48:11.866Z,42.23
2019-04-28T20:50:38.911Z,39.57
2019-04-28T20:53:05.913Z,35.27
2019-04-28T20:55:32.704Z,38.47
2019-04-28T20:57:59.503Z,33.73
2019-04-28T21:00:26.284Z,38.57
2019-04-28T21:02:53.180Z,38.83
2019-04-28T21:05:20.138Z,35.73
2019-04-28T21:07:46.923Z,33.93
2019-04-28T21:10:13.938Z,36.77
2019-04-28T21:12:40.999Z,32.77
2019-04-28T21:15:08.306Z,37.13
2019-04-28T21:17:35.415Z,36.83
2019-04-28T21:20:02.577Z,32.07
2019-04-28T21:22:29.394Z,30.90
2019-04-28T21:24:56.226Z,35.07
2019-04-28T21:27:23.054Z,34.67
2019-04-28T21:29:49.838Z,32.67
2019-04-28T21:32:16.634Z,30.33
2019-04-28T21:34:43.563Z,29.43
2019-04-28T21:37:10.366Z,31.43
2019-04-28T21:39:37.181Z,31.53
2019-04-28T21:42:06.050Z,38.47
2019-04-28T21:45:01.845Z,32.30
2019-04-28T21:47:30.805Z,32.47
2019-04-28T21:49:57.703Z,30.87
2019-04-28T21:52:24.493Z,27.13
2019-04-28T21:54:51.316Z,26.30
2019-04-28T21:57:18.124Z,27.47
2019-04-28T21:59:44.927Z,28.10
2019-04-28T22:02:12.067Z,24.93
2019-04-28T22:04:39.069Z,24.33
2019-04-28T22:07:06.098Z,25.70
2019-04-28T22:09:33.046Z,27.40
2019-04-28T22:11:59.952Z,25.40
2019-04-28T22:14:26.783Z,22.50
2019-04-28T22:16:53.798Z,22.43
2019-04-28T22:19:20.735Z,22.67
2019-04-28T22:21:47.600Z,18.87
2019-04-28T22:24:27.118Z,22.70
2019-04-28T22:26:54.154Z,23.87
2019-04-28T22:29:20.957Z,19.90
2019-04-28T22:31:48.071Z,22.67
2019-04-28T22:34:14.933Z,21.17
2019-04-28T22:36:42.879Z,21.57
2019-04-28T22:39:11.367Z,20.50
2019-04-28T22:41:38.441Z,20.67
2019-04-28T22:44:05.654Z,22.00
2019-04-28T22:46:32.667Z,19.30
2019-04-28T22:49:01.962Z,18.70
2019-04-28T22:51:29.299Z,19.77
2019-04-28T22:53:57.570Z,18.13
2019-04-28T22:56:37.822Z,21.97
2019-04-28T22:59:15.317Z,19.30
2019-04-28T23:01:44.693Z,18.33
2019-04-28T23:04:31.358Z,17.60
2019-04-28T23:06:58.459Z,19.43
2019-04-28T23:09:25.470Z,18.20
2019-04-28T23:11:52.342Z,17.23
2019-04-28T23:14:19.238Z,19.57
2019-04-28T23:16:46.231Z,19.20
2019-04-28T23:19:15.024Z,19.63
2019-04-28T23:21:48.986Z,23.13
2019-04-28T23:24:15.771Z,19.30
2019-04-28T23:26:42.711Z,19.83
2019-04-28T23:29:09.514Z,20.30
2019-04-28T23:31:36.671Z,16.50
2019-04-28T23:34:03.718Z,18.60
2019-04-28T23:36:30.749Z,17.50
2019-04-28T23:38:57.542Z,18.00
2019-04-28T23:41:42.230Z,17.37
2019-04-28T23:44:09.225Z,19.30
2019-04-28T23:46:55.793Z,16.43
2019-04-28T23:49:23.103Z,14.57
2019-04-28T23:51:59.096Z,15.73
2019-04-28T23:54:25.898Z,15.87
2019-04-28T23:56:52.710Z,15.20
2019-04-28T23:59:19.712Z,16.20
